sensor_id;sensor_type;location;lat;lon;timestamp;P1;durP1;ratioP1;P2;durP2;ratioP2
22160;SDS011;49035;48.812;11.762;2023-04-06T00:01:26;8.00;;;4.87;;
22160;SDS011;49035;48.812;11.762;2023-04-06T00:03:52;7.47;;;4.60;;
22160;SDS011;49035;48.812;11.762;2023-04-06T00:06:17;7.67;;;4.50;;
22160;SDS011;49035;48.812;11.762;2023-04-06T00:08:43;7.60;;;4.33;;
22160;SDS011;49035;48.812;11.762;2023-04-06T00:11:09;5.93;;;4.37;;
22160;SDS011;49035;48.812;11.762;2023-04-06T00:13:35;10.07;;;4.27;;
22160;SDS011;49035;48.812;11.762;2023-04-06T00:16:00;6.57;;;3.87;;
22160;SDS011;49035;48.812;11.762;2023-04-06T00:18:26;5.03;;;3.63;;
22160;SDS011;49035;48.812;11.762;2023-04-06T00:20:52;5.80;;;3.93;;
22160;SDS011;49035;48.812;11.762;2023-04-06T00:23:17;7.20;;;4.50;;
22160;SDS011;49035;48.812;11.762;2023-04-06T00:25:43;8.03;;;4.23;;
22160;SDS011;49035;48.812;11.762;2023-04-06T00:28:08;7.33;;;4.43;;
22160;SDS011;49035;48.812;11.762;2023-04-06T00:30:34;6.17;;;4.20;;
22160;SDS011;49035;48.812;11.762;2023-04-06T00:33:00;7.30;;;3.90;;
22160;SDS011;49035;48.812;11.762;2023-04-06T00:35:25;7.30;;;4.87;;
22160;SDS011;49035;48.812;11.762;2023-04-06T00:37:51;7.30;;;4.63;;
22160;SDS011;49035;48.812;11.762;2023-04-06T00:40:17;6.00;;;4.00;;
22160;SDS011;49035;48.812;11.762;2023-04-06T00:42:43;11.03;;;4.57;;
22160;SDS011;49035;48.812;11.762;2023-04-06T00:45:09;7.17;;;4.20;;
22160;SDS011;49035;48.812;11.762;2023-04-06T00:47:35;7.93;;;4.83;;
22160;SDS011;49035;48.812;11.762;2023-04-06T00:50:00;8.87;;;4.77;;
22160;SDS011;49035;48.812;11.762;2023-04-06T00:52:26;9.13;;;4.70;;
22160;SDS011;49035;48.812;11.762;2023-04-06T00:54:52;9.90;;;4.90;;
22160;SDS011;49035;48.812;11.762;2023-04-06T00:57:18;6.87;;;4.97;;
22160;SDS011;49035;48.812;11.762;2023-04-06T00:59:44;10.43;;;4.20;;
22160;SDS011;49035;48.812;11.762;2023-04-06T01:02:10;7.20;;;4.23;;
22160;SDS011;49035;48.812;11.762;2023-04-06T01:04:36;10.00;;;4.27;;
22160;SDS011;49035;48.812;11.762;2023-04-06T01:07:01;8.63;;;5.27;;
22160;SDS011;49035;48.812;11.762;2023-04-06T01:09:27;8.50;;;4.70;;
22160;SDS011;49035;48.812;11.762;2023-04-06T01:11:54;6.40;;;4.87;;
22160;SDS011;49035;48.812;11.762;2023-04-06T01:14:21;11.23;;;4.83;;
22160;SDS011;49035;48.812;11.762;2023-04-06T01:16:47;8.63;;;5.07;;
22160;SDS011;49035;48.812;11.762;2023-04-06T01:19:13;6.27;;;4.87;;
22160;SDS011;49035;48.812;11.762;2023-04-06T01:21:39;9.03;;;4.63;;
22160;SDS011;49035;48.812;11.762;2023-04-06T01:24:06;9.60;;;5.30;;
22160;SDS011;49035;48.812;11.762;2023-04-06T01:26:32;9.70;;;5.13;;
22160;SDS011;49035;48.812;11.762;2023-04-06T01:28:59;8.37;;;5.20;;
22160;SDS011;49035;48.812;11.762;2023-04-06T01:31:24;7.60;;;4.67;;
22160;SDS011;49035;48.812;11.762;2023-04-06T01:33:51;9.83;;;5.17;;
22160;SDS011;49035;48.812;11.762;2023-04-06T01:36:16;9.43;;;5.07;;
22160;SDS011;49035;48.812;11.762;2023-04-06T01:38:42;8.53;;;5.00;;
22160;SDS011;49035;48.812;11.762;2023-04-06T01:41:08;10.63;;;5.60;;
22160;SDS011;49035;48.812;11.762;2023-04-06T01:43:34;9.70;;;5.70;;
22160;SDS011;49035;48.812;11.762;2023-04-06T01:46:00;6.03;;;4.57;;
22160;SDS011;49035;48.812;11.762;2023-04-06T01:48:26;7.70;;;5.17;;
22160;SDS011;49035;48.812;11.762;2023-04-06T01:50:52;7.77;;;5.07;;
22160;SDS011;49035;48.812;11.762;2023-04-06T01:53:18;6.93;;;4.80;;
22160;SDS011;49035;48.812;11.762;2023-04-06T01:55:43;7.43;;;4.87;;
22160;SDS011;49035;48.812;11.762;2023-04-06T01:58:09;8.17;;;4.53;;
22160;SDS011;49035;48.812;11.762;2023-04-06T02:00:35;9.40;;;5.50;;
22160;SDS011;49035;48.812;11.762;2023-04-06T02:03:00;8.00;;;5.80;;
22160;SDS011;49035;48.812;11.762;2023-04-06T02:05:26;11.83;;;5.47;;
22160;SDS011;49035;48.812;11.762;2023-04-06T02:07:52;8.10;;;5.17;;
22160;SDS011;49035;48.812;11.762;2023-04-06T02:10:18;8.63;;;5.00;;
22160;SDS011;49035;48.812;11.762;2023-04-06T02:12:44;8.87;;;5.60;;
22160;SDS011;49035;48.812;11.762;2023-04-06T02:15:09;14.67;;;6.47;;
22160;SDS011;49035;48.812;11.762;2023-04-06T02:17:35;9.50;;;5.20;;
22160;SDS011;49035;48.812;11.762;2023-04-06T02:20:01;11.40;;;5.73;;
22160;SDS011;49035;48.812;11.762;2023-04-06T02:22:26;11.50;;;5.83;;
22160;SDS011;49035;48.812;11.762;2023-04-06T02:24:52;9.63;;;5.20;;
22160;SDS011;49035;48.812;11.762;2023-04-06T02:27:17;9.70;;;5.63;;
22160;SDS011;49035;48.812;11.762;2023-04-06T02:29:43;7.60;;;4.80;;
22160;SDS011;49035;48.812;11.762;2023-04-06T02:32:08;8.07;;;4.60;;
22160;SDS011;49035;48.812;11.762;2023-04-06T02:34:34;10.27;;;5.20;;
22160;SDS011;49035;48.812;11.762;2023-04-06T02:36:59;9.10;;;4.83;;
22160;SDS011;49035;48.812;11.762;2023-04-06T02:39:25;9.10;;;4.80;;
22160;SDS011;49035;48.812;11.762;2023-04-06T02:41:51;6.57;;;5.13;;
22160;SDS011;49035;48.812;11.762;2023-04-06T02:44:16;9.20;;;5.70;;
22160;SDS011;49035;48.812;11.762;2023-04-06T02:46:42;11.47;;;6.23;;
22160;SDS011;49035;48.812;11.762;2023-04-06T02:49:07;9.37;;;5.37;;
22160;SDS011;49035;48.812;11.762;2023-04-06T02:51:33;12.67;;;5.33;;
22160;SDS011;49035;48.812;11.762;2023-04-06T02:53:59;9.57;;;5.27;;
22160;SDS011;49035;48.812;11.762;2023-04-06T02:56:24;7.17;;;5.10;;
22160;SDS011;49035;48.812;11.762;2023-04-06T02:58:51;12.03;;;5.60;;
22160;SDS011;49035;48.812;11.762;2023-04-06T03:01:16;11.37;;;5.00;;
22160;SDS011;49035;48.812;11.762;2023-04-06T03:03:42;8.87;;;5.40;;
22160;SDS011;49035;48.812;11.762;2023-04-06T03:06:07;12.20;;;5.67;;
22160;SDS011;49035;48.812;11.762;2023-04-06T03:08:33;7.73;;;5.50;;
22160;SDS011;49035;48.812;11.762;2023-04-06T03:10:59;7.83;;;5.43;;
22160;SDS011;49035;48.812;11.762;2023-04-06T03:13:24;7.53;;;5.77;;
22160;SDS011;49035;48.812;11.762;2023-04-06T03:15:50;8.67;;;5.40;;
22160;SDS011;49035;48.812;11.762;2023-04-06T03:18:17;7.67;;;5.33;;
22160;SDS011;49035;48.812;11.762;2023-04-06T03:20:45;7.63;;;5.67;;
22160;SDS011;49035;48.812;11.762;2023-04-06T03:23:12;10.20;;;6.23;;
22160;SDS011;49035;48.812;11.762;2023-04-06T03:25:37;10.40;;;5.33;;
22160;SDS011;49035;48.812;11.762;2023-04-06T03:28:04;9.60;;;5.87;;
22160;SDS011;49035;48.812;11.762;2023-04-06T03:30:30;8.13;;;5.47;;
22160;SDS011;49035;48.812;11.762;2023-04-06T03:32:55;9.00;;;5.00;;
22160;SDS011;49035;48.812;11.762;2023-04-06T03:35:21;7.23;;;5.30;;
22160;SDS011;49035;48.812;11.762;2023-04-06T03:37:46;11.40;;;5.27;;
22160;SDS011;49035;48.812;11.762;2023-04-06T03:40:12;12.27;;;5.73;;
22160;SDS011;49035;48.812;11.762;2023-04-06T03:42:38;14.23;;;4.93;;
22160;SDS011;49035;48.812;11.762;2023-04-06T03:45:03;12.50;;;6.47;;
22160;SDS011;49035;48.812;11.762;2023-04-06T03:47:29;9.77;;;6.37;;
22160;SDS011;49035;48.812;11.762;2023-04-06T03:49:55;14.77;;;6.20;;
22160;SDS011;49035;48.812;11.762;2023-04-06T03:52:20;8.87;;;6.17;;
22160;SDS011;49035;48.812;11.762;2023-04-06T03:54:48;10.67;;;6.17;;
22160;SDS011;49035;48.812;11.762;2023-04-06T03:57:13;9.97;;;5.47;;
22160;SDS011;49035;48.812;11.762;2023-04-06T03:59:39;12.00;;;5.47;;
22160;SDS011;49035;48.812;11.762;2023-04-06T04:02:05;10.23;;;6.03;;
22160;SDS011;49035;48.812;11.762;2023-04-06T04:04:30;11.13;;;6.30;;
22160;SDS011;49035;48.812;11.762;2023-04-06T04:06:56;10.93;;;6.40;;
22160;SDS011;49035;48.812;11.762;2023-04-06T04:09:21;10.27;;;5.83;;
22160;SDS011;49035;48.812;11.762;2023-04-06T04:11:47;8.33;;;5.60;;
22160;SDS011;49035;48.812;11.762;2023-04-06T04:14:13;9.90;;;6.43;;
22160;SDS011;49035;48.812;11.762;2023-04-06T04:16:38;10.87;;;5.80;;
22160;SDS011;49035;48.812;11.762;2023-04-06T04:19:04;11.17;;;6.63;;
22160;SDS011;49035;48.812;11.762;2023-04-06T04:21:30;13.67;;;6.23;;
22160;SDS011;49035;48.812;11.762;2023-04-06T04:23:56;11.53;;;5.80;;
22160;SDS011;49035;48.812;11.762;2023-04-06T04:26:22;10.77;;;6.73;;
22160;SDS011;49035;48.812;11.762;2023-04-06T04:28:47;11.20;;;5.77;;
22160;SDS011;49035;48.812;11.762;2023-04-06T04:31:13;11.50;;;6.40;;
22160;SDS011;49035;48.812;11.762;2023-04-06T04:33:38;10.20;;;5.37;;
22160;SDS011;49035;48.812;11.762;2023-04-06T04:36:04;14.70;;;7.07;;
22160;SDS011;49035;48.812;11.762;2023-04-06T04:38:30;10.10;;;6.13;;
22160;SDS011;49035;48.812;11.762;2023-04-06T04:40:55;10.17;;;5.93;;
22160;SDS011;49035;48.812;11.762;2023-04-06T04:43:21;13.33;;;6.43;;
22160;SDS011;49035;48.812;11.762;2023-04-06T04:45:47;9.57;;;6.27;;
22160;SDS011;49035;48.812;11.762;2023-04-06T04:48:12;10.63;;;5.93;;
22160;SDS011;49035;48.812;11.762;2023-04-06T04:50:38;11.67;;;5.83;;
22160;SDS011;49035;48.812;11.762;2023-04-06T04:53:03;9.77;;;6.20;;
22160;SDS011;49035;48.812;11.762;2023-04-06T04:55:32;8.80;;;5.57;;
22160;SDS011;49035;48.812;11.762;2023-04-06T04:57:58;7.20;;;5.10;;
22160;SDS011;49035;48.812;11.762;2023-04-06T05:00:23;11.77;;;5.50;;
22160;SDS011;49035;48.812;11.762;2023-04-06T05:02:49;8.80;;;5.87;;
22160;SDS011;49035;48.812;11.762;2023-04-06T05:05:14;10.40;;;6.30;;
22160;SDS011;49035;48.812;11.762;2023-04-06T05:07:40;9.07;;;5.27;;
22160;SDS011;49035;48.812;11.762;2023-04-06T05:10:06;11.77;;;5.87;;
22160;SDS011;49035;48.812;11.762;2023-04-06T05:12:32;9.00;;;5.77;;
22160;SDS011;49035;48.812;11.762;2023-04-06T05:14:57;10.37;;;6.47;;
22160;SDS011;49035;48.812;11.762;2023-04-06T05:17:23;10.23;;;6.40;;
22160;SDS011;49035;48.812;11.762;2023-04-06T05:19:48;10.87;;;5.77;;
22160;SDS011;49035;48.812;11.762;2023-04-06T05:22:14;11.57;;;6.83;;
22160;SDS011;49035;48.812;11.762;2023-04-06T05:24:42;13.70;;;6.47;;
22160;SDS011;49035;48.812;11.762;2023-04-06T05:27:08;11.77;;;6.97;;
22160;SDS011;49035;48.812;11.762;2023-04-06T05:29:34;9.47;;;6.93;;
22160;SDS011;49035;48.812;11.762;2023-04-06T05:32:00;14.57;;;8.10;;
22160;SDS011;49035;48.812;11.762;2023-04-06T05:34:26;15.37;;;7.17;;
22160;SDS011;49035;48.812;11.762;2023-04-06T05:36:51;14.80;;;7.90;;
22160;SDS011;49035;48.812;11.762;2023-04-06T05:39:17;15.20;;;7.87;;
22160;SDS011;49035;48.812;11.762;2023-04-06T05:41:42;12.73;;;7.87;;
22160;SDS011;49035;48.812;11.762;2023-04-06T05:44:08;16.13;;;8.27;;
22160;SDS011;49035;48.812;11.762;2023-04-06T05:46:34;14.77;;;8.30;;
22160;SDS011;49035;48.812;11.762;2023-04-06T05:48:59;16.83;;;7.60;;
22160;SDS011;49035;48.812;11.762;2023-04-06T05:51:25;11.63;;;7.50;;
22160;SDS011;49035;48.812;11.762;2023-04-06T05:53:52;17.43;;;9.00;;
22160;SDS011;49035;48.812;11.762;2023-04-06T05:56:18;15.50;;;8.57;;
22160;SDS011;49035;48.812;11.762;2023-04-06T05:58:43;18.07;;;10.20;;
22160;SDS011;49035;48.812;11.762;2023-04-06T06:01:09;16.00;;;9.40;;
22160;SDS011;49035;48.812;11.762;2023-04-06T06:03:35;18.53;;;10.27;;
22160;SDS011;49035;48.812;11.762;2023-04-06T06:06:01;16.23;;;10.03;;
22160;SDS011;49035;48.812;11.762;2023-04-06T06:08:28;16.63;;;9.27;;
22160;SDS011;49035;48.812;11.762;2023-04-06T06:10:54;16.73;;;9.43;;
22160;SDS011;49035;48.812;11.762;2023-04-06T06:13:20;16.40;;;8.83;;
22160;SDS011;49035;48.812;11.762;2023-04-06T06:15:46;12.70;;;9.00;;
22160;SDS011;49035;48.812;11.762;2023-04-06T06:18:12;14.63;;;9.37;;
22160;SDS011;49035;48.812;11.762;2023-04-06T06:20:37;13.13;;;7.83;;
22160;SDS011;49035;48.812;11.762;2023-04-06T06:23:03;9.83;;;7.60;;
22160;SDS011;49035;48.812;11.762;2023-04-06T06:25:29;12.97;;;7.30;;
22160;SDS011;49035;48.812;11.762;2023-04-06T06:27:55;12.10;;;7.70;;
22160;SDS011;49035;48.812;11.762;2023-04-06T06:30:21;15.93;;;7.43;;
22160;SDS011;49035;48.812;11.762;2023-04-06T06:32:47;8.37;;;6.50;;
22160;SDS011;49035;48.812;11.762;2023-04-06T06:35:13;10.47;;;7.43;;
22160;SDS011;49035;48.812;11.762;2023-04-06T06:37:39;9.07;;;6.03;;
22160;SDS011;49035;48.812;11.762;2023-04-06T06:40:05;9.87;;;5.90;;
22160;SDS011;49035;48.812;11.762;2023-04-06T06:42:31;14.47;;;6.90;;
22160;SDS011;49035;48.812;11.762;2023-04-06T06:44:56;8.47;;;5.93;;
22160;SDS011;49035;48.812;11.762;2023-04-06T06:47:22;10.03;;;6.50;;
22160;SDS011;49035;48.812;11.762;2023-04-06T06:49:47;10.47;;;6.50;;
22160;SDS011;49035;48.812;11.762;2023-04-06T06:52:13;10.47;;;6.10;;
22160;SDS011;49035;48.812;11.762;2023-04-06T06:54:39;11.87;;;7.07;;
22160;SDS011;49035;48.812;11.762;2023-04-06T06:57:05;11.50;;;6.97;;
22160;SDS011;49035;48.812;11.762;2023-04-06T06:59:30;13.50;;;7.40;;
22160;SDS011;49035;48.812;11.762;2023-04-06T07:01:56;9.97;;;7.10;;
22160;SDS011;49035;48.812;11.762;2023-04-06T07:04:21;11.87;;;7.67;;
22160;SDS011;49035;48.812;11.762;2023-04-06T07:06:47;8.57;;;6.43;;
22160;SDS011;49035;48.812;11.762;2023-04-06T07:09:12;11.03;;;6.03;;
22160;SDS011;49035;48.812;11.762;2023-04-06T07:11:38;9.53;;;6.93;;
22160;SDS011;49035;48.812;11.762;2023-04-06T07:14:04;9.87;;;6.83;;
22160;SDS011;49035;48.812;11.762;2023-04-06T07:16:29;15.97;;;7.60;;
22160;SDS011;49035;48.812;11.762;2023-04-06T07:18:55;12.40;;;6.93;;
22160;SDS011;49035;48.812;11.762;2023-04-06T07:21:21;9.77;;;6.83;;
22160;SDS011;49035;48.812;11.762;2023-04-06T07:23:47;11.37;;;6.47;;
22160;SDS011;49035;48.812;11.762;2023-04-06T07:26:13;10.17;;;7.03;;
22160;SDS011;49035;48.812;11.762;2023-04-06T07:28:38;11.60;;;8.00;;
22160;SDS011;49035;48.812;11.762;2023-04-06T07:31:04;12.00;;;7.20;;
22160;SDS011;49035;48.812;11.762;2023-04-06T07:33:30;15.67;;;7.90;;
22160;SDS011;49035;48.812;11.762;2023-04-06T07:35:56;9.70;;;6.90;;
22160;SDS011;49035;48.812;11.762;2023-04-06T07:38:23;14.77;;;7.43;;
22160;SDS011;49035;48.812;11.762;2023-04-06T07:40:48;10.27;;;6.93;;
22160;SDS011;49035;48.812;11.762;2023-04-06T07:43:14;10.70;;;6.97;;
22160;SDS011;49035;48.812;11.762;2023-04-06T07:45:40;10.50;;;6.80;;
22160;SDS011;49035;48.812;11.762;2023-04-06T07:48:06;12.63;;;6.50;;
22160;SDS011;49035;48.812;11.762;2023-04-06T07:50:31;14.97;;;7.00;;
22160;SDS011;49035;48.812;11.762;2023-04-06T07:52:57;9.47;;;6.47;;
22160;SDS011;49035;48.812;11.762;2023-04-06T07:55:22;11.30;;;7.03;;
22160;SDS011;49035;48.812;11.762;2023-04-06T07:57:48;8.03;;;6.50;;
22160;SDS011;49035;48.812;11.762;2023-04-06T08:00:14;10.63;;;6.50;;
22160;SDS011;49035;48.812;11.762;2023-04-06T08:02:40;9.77;;;6.43;;
22160;SDS011;49035;48.812;11.762;2023-04-06T08:05:05;9.90;;;6.80;;
22160;SDS011;49035;48.812;11.762;2023-04-06T08:07:32;12.70;;;7.77;;
22160;SDS011;49035;48.812;11.762;2023-04-06T08:09:57;10.93;;;7.23;;
22160;SDS011;49035;48.812;11.762;2023-04-06T08:12:23;11.00;;;6.80;;
22160;SDS011;49035;48.812;11.762;2023-04-06T08:14:48;11.93;;;8.03;;
22160;SDS011;49035;48.812;11.762;2023-04-06T08:17:14;12.90;;;6.67;;
22160;SDS011;49035;48.812;11.762;2023-04-06T08:19:42;9.60;;;6.80;;
22160;SDS011;49035;48.812;11.762;2023-04-06T08:22:09;12.03;;;7.47;;
22160;SDS011;49035;48.812;11.762;2023-04-06T08:24:35;11.27;;;6.67;;
22160;SDS011;49035;48.812;11.762;2023-04-06T08:27:00;10.13;;;6.87;;
22160;SDS011;49035;48.812;11.762;2023-04-06T08:29:26;9.87;;;7.13;;
22160;SDS011;49035;48.812;11.762;2023-04-06T08:31:51;9.87;;;6.63;;
22160;SDS011;49035;48.812;11.762;2023-04-06T08:34:17;16.40;;;6.60;;
22160;SDS011;49035;48.812;11.762;2023-04-06T08:36:43;13.07;;;6.57;;
22160;SDS011;49035;48.812;11.762;2023-04-06T08:39:08;10.80;;;7.20;;
22160;SDS011;49035;48.812;11.762;2023-04-06T08:41:34;10.03;;;6.97;;
22160;SDS011;49035;48.812;11.762;2023-04-06T08:44:00;11.90;;;6.70;;
22160;SDS011;49035;48.812;11.762;2023-04-06T08:46:26;9.53;;;5.93;;
22160;SDS011;49035;48.812;11.762;2023-04-06T08:49:00;11.00;;;7.00;;
22160;SDS011;49035;48.812;11.762;2023-04-06T08:51:27;11.67;;;6.60;;
22160;SDS011;49035;48.812;11.762;2023-04-06T08:53:54;11.40;;;6.37;;
22160;SDS011;49035;48.812;11.762;2023-04-06T08:56:24;11.50;;;6.67;;
22160;SDS011;49035;48.812;11.762;2023-04-06T08:58:51;8.30;;;6.20;;
22160;SDS011;49035;48.812;11.762;2023-04-06T09:01:20;12.40;;;7.13;;
22160;SDS011;49035;48.812;11.762;2023-04-06T09:03:48;8.17;;;6.00;;
22160;SDS011;49035;48.812;11.762;2023-04-06T09:06:15;10.03;;;6.53;;
22160;SDS011;49035;48.812;11.762;2023-04-06T09:08:41;9.37;;;6.40;;
22160;SDS011;49035;48.812;11.762;2023-04-06T09:11:07;12.00;;;6.50;;
22160;SDS011;49035;48.812;11.762;2023-04-06T09:13:52;8.60;;;6.13;;
22160;SDS011;49035;48.812;11.762;2023-04-06T09:16:20;11.73;;;6.10;;
22160;SDS011;49035;48.812;11.762;2023-04-06T09:18:46;9.17;;;6.80;;
22160;SDS011;49035;48.812;11.762;2023-04-06T09:21:12;9.00;;;6.40;;
22160;SDS011;49035;48.812;11.762;2023-04-06T09:23:38;15.77;;;7.00;;
22160;SDS011;49035;48.812;11.762;2023-04-06T09:26:09;8.17;;;5.87;;
22160;SDS011;49035;48.812;11.762;2023-04-06T09:28:45;7.87;;;5.57;;
22160;SDS011;49035;48.812;11.762;2023-04-06T09:31:31;11.10;;;6.07;;
22160;SDS011;49035;48.812;11.762;2023-04-06T09:33:59;8.63;;;5.77;;
22160;SDS011;49035;48.812;11.762;2023-04-06T09:36:30;8.93;;;5.87;;
22160;SDS011;49035;48.812;11.762;2023-04-06T09:39:01;10.23;;;6.17;;
22160;SDS011;49035;48.812;11.762;2023-04-06T09:41:28;11.47;;;6.00;;
22160;SDS011;49035;48.812;11.762;2023-04-06T09:44:02;7.43;;;5.77;;
22160;SDS011;49035;48.812;11.762;2023-04-06T09:46:29;10.90;;;5.70;;
22160;SDS011;49035;48.812;11.762;2023-04-06T09:48:57;7.53;;;5.80;;
22160;SDS011;49035;48.812;11.762;2023-04-06T09:51:23;9.33;;;5.70;;
22160;SDS011;49035;48.812;11.762;2023-04-06T09:53:52;8.02;;;5.65;;
22160;SDS011;49035;48.812;11.762;2023-04-06T09:56:20;9.57;;;6.77;;
22160;SDS011;49035;48.812;11.762;2023-04-06T09:58:53;9.13;;;6.17;;
22160;SDS011;49035;48.812;11.762;2023-04-06T10:01:26;8.18;;;6.57;;
22160;SDS011;49035;48.812;11.762;2023-04-06T10:04:07;15.93;;;5.78;;
22160;SDS011;49035;48.812;11.762;2023-04-06T10:06:43;9.98;;;6.13;;
22160;SDS011;49035;48.812;11.762;2023-04-06T10:09:12;9.53;;;6.23;;
22160;SDS011;49035;48.812;11.762;2023-04-06T10:11:39;7.45;;;5.18;;
22160;SDS011;49035;48.812;11.762;2023-04-06T10:14:05;9.47;;;5.97;;
22160;SDS011;49035;48.812;11.762;2023-04-06T10:16:31;9.73;;;6.18;;
22160;SDS011;49035;48.812;11.762;2023-04-06T10:19:00;9.18;;;5.78;;
22160;SDS011;49035;48.812;11.762;2023-04-06T10:21:32;7.18;;;5.65;;
22160;SDS011;49035;48.812;11.762;2023-04-06T10:23:59;9.87;;;6.60;;
22160;SDS011;49035;48.812;11.762;2023-04-06T10:26:26;11.05;;;6.15;;
22160;SDS011;49035;48.812;11.762;2023-04-06T10:28:52;8.43;;;6.40;;
22160;SDS011;49035;48.812;11.762;2023-04-06T10:31:26;9.43;;;6.80;;
22160;SDS011;49035;48.812;11.762;2023-04-06T10:33:56;8.55;;;6.70;;
22160;SDS011;49035;48.812;11.762;2023-04-06T10:36:24;9.63;;;7.10;;
22160;SDS011;49035;48.812;11.762;2023-04-06T10:38:55;10.60;;;7.25;;
22160;SDS011;49035;48.812;11.762;2023-04-06T10:41:22;8.45;;;6.82;;
22160;SDS011;49035;48.812;11.762;2023-04-06T10:43:54;8.57;;;6.57;;
22160;SDS011;49035;48.812;11.762;2023-04-06T10:46:25;9.70;;;7.55;;
22160;SDS011;49035;48.812;11.762;2023-04-06T10:48:51;9.40;;;7.80;;
22160;SDS011;49035;48.812;11.762;2023-04-06T10:51:18;9.50;;;7.40;;
22160;SDS011;49035;48.812;11.762;2023-04-06T10:53:48;9.80;;;7.05;;
22160;SDS011;49035;48.812;11.762;2023-04-06T10:56:15;9.00;;;7.60;;
22160;SDS011;49035;48.812;11.762;2023-04-06T10:58:49;13.97;;;7.33;;
22160;SDS011;49035;48.812;11.762;2023-04-06T11:01:17;12.07;;;7.65;;
22160;SDS011;49035;48.812;11.762;2023-04-06T11:03:45;9.52;;;7.22;;
22160;SDS011;49035;48.812;11.762;2023-04-06T11:06:19;10.18;;;7.65;;
22160;SDS011;49035;48.812;11.762;2023-04-06T11:08:46;9.55;;;7.28;;
22160;SDS011;49035;48.812;11.762;2023-04-06T11:11:15;10.90;;;7.40;;
22160;SDS011;49035;48.812;11.762;2023-04-06T11:13:50;10.20;;;7.22;;
22160;SDS011;49035;48.812;11.762;2023-04-06T11:16:18;10.15;;;7.90;;
22160;SDS011;49035;48.812;11.762;2023-04-06T11:21:34;10.38;;;7.65;;
22160;SDS011;49035;48.812;11.762;2023-04-06T11:26:40;12.05;;;7.65;;
22160;SDS011;49035;48.812;11.762;2023-04-06T11:29:20;11.90;;;6.78;;
22160;SDS011;49035;48.812;11.762;2023-04-06T11:31:48;8.13;;;7.10;;
22160;SDS011;49035;48.812;11.762;2023-04-06T11:34:16;10.50;;;7.05;;
22160;SDS011;49035;48.812;11.762;2023-04-06T11:36:44;10.60;;;7.43;;
22160;SDS011;49035;48.812;11.762;2023-04-06T11:39:12;10.50;;;6.93;;
22160;SDS011;49035;48.812;11.762;2023-04-06T11:41:38;11.32;;;7.95;;
22160;SDS011;49035;48.812;11.762;2023-04-06T11:44:05;11.70;;;8.40;;
22160;SDS011;49035;48.812;11.762;2023-04-06T11:46:31;10.98;;;8.07;;
22160;SDS011;49035;48.812;11.762;2023-04-06T11:49:01;9.95;;;7.47;;
22160;SDS011;49035;48.812;11.762;2023-04-06T11:51:27;8.68;;;7.35;;
22160;SDS011;49035;48.812;11.762;2023-04-06T11:53:53;10.75;;;7.53;;
22160;SDS011;49035;48.812;11.762;2023-04-06T11:56:23;10.63;;;7.18;;
22160;SDS011;49035;48.812;11.762;2023-04-06T11:58:54;8.00;;;7.03;;
22160;SDS011;49035;48.812;11.762;2023-04-06T12:01:21;8.30;;;7.35;;
22160;SDS011;49035;48.812;11.762;2023-04-06T12:03:47;11.55;;;7.60;;
22160;SDS011;49035;48.812;11.762;2023-04-06T12:06:13;10.25;;;8.35;;
22160;SDS011;49035;48.812;11.762;2023-04-06T12:08:38;10.82;;;7.65;;
22160;SDS011;49035;48.812;11.762;2023-04-06T12:11:04;10.98;;;7.40;;
22160;SDS011;49035;48.812;11.762;2023-04-06T12:13:30;8.80;;;7.40;;
22160;SDS011;49035;48.812;11.762;2023-04-06T12:15:56;10.85;;;7.60;;
22160;SDS011;49035;48.812;11.762;2023-04-06T12:18:21;10.43;;;7.72;;
22160;SDS011;49035;48.812;11.762;2023-04-06T12:20:47;10.18;;;7.38;;
22160;SDS011;49035;48.812;11.762;2023-04-06T12:23:12;10.85;;;7.70;;
22160;SDS011;49035;48.812;11.762;2023-04-06T12:25:42;8.55;;;7.47;;
22160;SDS011;49035;48.812;11.762;2023-04-06T12:28:07;10.40;;;7.80;;
22160;SDS011;49035;48.812;11.762;2023-04-06T12:30:34;10.43;;;8.30;;
22160;SDS011;49035;48.812;11.762;2023-04-06T12:33:00;10.27;;;7.38;;
22160;SDS011;49035;48.812;11.762;2023-04-06T12:35:26;9.10;;;7.35;;
22160;SDS011;49035;48.812;11.762;2023-04-06T12:37:52;12.60;;;8.35;;
22160;SDS011;49035;48.812;11.762;2023-04-06T12:40:17;11.90;;;6.97;;
22160;SDS011;49035;48.812;11.762;2023-04-06T12:42:43;12.55;;;7.70;;
22160;SDS011;49035;48.812;11.762;2023-04-06T12:45:10;12.02;;;7.68;;
22160;SDS011;49035;48.812;11.762;2023-04-06T12:47:36;9.68;;;7.72;;
22160;SDS011;49035;48.812;11.762;2023-04-06T12:50:02;9.43;;;7.75;;
22160;SDS011;49035;48.812;11.762;2023-04-06T12:52:30;13.73;;;8.15;;
22160;SDS011;49035;48.812;11.762;2023-04-06T12:54:56;10.77;;;7.72;;
22160;SDS011;49035;48.812;11.762;2023-04-06T12:57:24;9.07;;;7.22;;
22160;SDS011;49035;48.812;11.762;2023-04-06T12:59:50;11.55;;;7.95;;
22160;SDS011;49035;48.812;11.762;2023-04-06T13:02:16;10.73;;;7.75;;
22160;SDS011;49035;48.812;11.762;2023-04-06T13:04:42;10.38;;;7.70;;
22160;SDS011;49035;48.812;11.762;2023-04-06T13:07:07;10.40;;;8.10;;
22160;SDS011;49035;48.812;11.762;2023-04-06T13:09:33;14.13;;;8.18;;
22160;SDS011;49035;48.812;11.762;2023-04-06T13:11:58;10.18;;;7.45;;
22160;SDS011;49035;48.812;11.762;2023-04-06T13:14:24;11.50;;;7.85;;
22160;SDS011;49035;48.812;11.762;2023-04-06T13:16:50;10.52;;;8.25;;
22160;SDS011;49035;48.812;11.762;2023-04-06T13:19:16;10.15;;;7.50;;
22160;SDS011;49035;48.812;11.762;2023-04-06T13:21:43;12.30;;;8.10;;
22160;SDS011;49035;48.812;11.762;2023-04-06T13:24:08;8.93;;;6.90;;
22160;SDS011;49035;48.812;11.762;2023-04-06T13:26:34;11.13;;;7.45;;
22160;SDS011;49035;48.812;11.762;2023-04-06T13:29:01;10.73;;;7.60;;
22160;SDS011;49035;48.812;11.762;2023-04-06T13:31:27;9.38;;;7.47;;
22160;SDS011;49035;48.812;11.762;2023-04-06T13:33:53;10.68;;;7.88;;
22160;SDS011;49035;48.812;11.762;2023-04-06T13:36:19;9.02;;;7.22;;
22160;SDS011;49035;48.812;11.762;2023-04-06T13:38:45;10.45;;;7.07;;
22160;SDS011;49035;48.812;11.762;2023-04-06T13:41:17;14.02;;;7.80;;
22160;SDS011;49035;48.812;11.762;2023-04-06T13:43:47;10.20;;;7.85;;
22160;SDS011;49035;48.812;11.762;2023-04-06T13:46:13;11.90;;;7.53;;
22160;SDS011;49035;48.812;11.762;2023-04-06T13:48:38;10.77;;;7.60;;
22160;SDS011;49035;48.812;11.762;2023-04-06T13:51:10;9.57;;;6.88;;
22160;SDS011;49035;48.812;11.762;2023-04-06T13:53:37;8.40;;;6.60;;
22160;SDS011;49035;48.812;11.762;2023-04-06T13:56:03;12.23;;;7.43;;
22160;SDS011;49035;48.812;11.762;2023-04-06T13:58:28;8.93;;;7.28;;
22160;SDS011;49035;48.812;11.762;2023-04-06T14:00:54;10.10;;;6.97;;
22160;SDS011;49035;48.812;11.762;2023-04-06T14:03:20;9.02;;;6.47;;
22160;SDS011;49035;48.812;11.762;2023-04-06T14:05:47;8.30;;;6.20;;
22160;SDS011;49035;48.812;11.762;2023-04-06T14:08:12;6.47;;;5.47;;
22160;SDS011;49035;48.812;11.762;2023-04-06T14:10:39;8.65;;;6.80;;
22160;SDS011;49035;48.812;11.762;2023-04-06T14:13:05;9.93;;;6.57;;
22160;SDS011;49035;48.812;11.762;2023-04-06T14:15:31;8.02;;;6.13;;
22160;SDS011;49035;48.812;11.762;2023-04-06T14:17:57;8.00;;;6.55;;
22160;SDS011;49035;48.812;11.762;2023-04-06T14:20:22;12.60;;;6.20;;
22160;SDS011;49035;48.812;11.762;2023-04-06T14:22:48;8.77;;;6.50;;
22160;SDS011;49035;48.812;11.762;2023-04-06T14:25:14;7.93;;;5.40;;
22160;SDS011;49035;48.812;11.762;2023-04-06T14:27:42;11.10;;;5.35;;
22160;SDS011;49035;48.812;11.762;2023-04-06T14:30:08;8.02;;;6.50;;